Aérodrome :
LOGIN :

S'inscrire | Disclaimer

   EN    FR    IT 

 










Légende :    VFR   VFR Marginal   IFR   IFR Intensif   IFR Très Intensif
Visi : 
Plafond : 
>= 8 km
>= 3000ft
5 à 8 km
1000 à 3000 ft
1500m à 5 km
500 à 1000 ft
800 à 1500m
200 à 500 ft
< 800m
< 200 ft
Symboles :   Orages  Brouillard  Fortes neiges  Fortes précipitations  Vent > 20 kt
SIGMETs :   Divers  Orages  Givrage  Turbulence  Onde Orograph.  Cendres Volcan.







- Altitude de l'aérodrome : 87 ft
- Code IATA : AHO


LIEA - Fertilia Alghero

DERNIER METAR :
  • 231450Z 30005KT 250V350 9999 SCT045 18/09 Q1018

METARs EXPIRÉS :
  • 231420Z 33005KT 280V020 9999 SCT045 19/09 Q1017
  • 231350Z 33007KT 290V010 9999 SCT045 19/09 Q1017
  • 231320Z 32007KT 280V020 9999 SCT045 18/09 Q1017
  • 231250Z 31008KT 260V340 9999 SCT045 18/09 Q1017
  • 231220Z 31008KT 280V350 9999 SCT045 18/08 Q1018
  • 231150Z 30008KT 250V340 9999 SCT045 19/08 Q1018

TAF TAF LIEA
Valide du 23 à 12h jusqu'au 24 à 12h UTC


231100Z 2312/2412 32015KT 9999 SCT030
BECMG 2319/2321 VRB06KT
Pas de NOTAMs connus pour ce terrain.
1 SIGMET publié pour la FIR Roma (LIRR) :
 
Turbulence forte
LIRR SIGMET 2 VALID 231300/231700 LIIB
LIRR ROMA FIR SEV TURB FCST WI N3854 E01630 - N4011 E01543 - N3749 E01443 - N3716 E01900 - N3852 E01858 - N3854 E01630 FL390/450 STNR WKN=



MET'MAP, la Météo Aéronautique d'un coup d'oeil ! - Copyright ORBIFLY Décembre 2007 - Disclaimer

ORBIFLY MET'MAP TEAM :

Programmation & Développement : Alexandra Zaïnal
Conception & Développement : Baudouin d'Aumeries
Co-Programmation & Développement : Marc-Olivier Méhu
Soutien technique & logistique : Manuel Goepfert

Contact : metmap@orbifly.com




SOURCES & CREDITS :

   NOAA